createdAt,value
2023-04-16T00:00:36.228Z,98469.31
2023-04-16T00:03:04.228Z,98472.84
2023-04-16T00:05:31.809Z,98481.94
2023-04-16T00:07:59.259Z,98482.16
2023-04-16T00:10:28.387Z,98486.19
2023-04-16T00:12:55.890Z,98495.47
2023-04-16T00:15:23.958Z,98494.19
2023-04-16T00:17:51.481Z,98494.56
2023-04-16T00:20:19.131Z,98501.63
2023-04-16T00:22:46.963Z,98497.09
2023-04-16T00:25:14.445Z,98496.66
2023-04-16T00:27:43.458Z,98504.78
2023-04-16T00:30:11.314Z,98504.91
2023-04-16T00:32:38.854Z,98503.97
2023-04-16T00:35:07.702Z,98507.88
2023-04-16T00:37:35.678Z,98514.09
2023-04-16T00:40:03.441Z,98510.38
2023-04-16T00:42:31.012Z,98514.31
2023-04-16T00:44:59.945Z,98514.31
2023-04-16T00:47:27.651Z,98514.50
2023-04-16T00:49:55.439Z,98521.56
2023-04-16T00:52:22.942Z,98517.38
2023-04-16T00:54:52.529Z,98526.13
2023-04-16T00:57:20.682Z,98523.22
2023-04-16T00:59:48.161Z,98524.47
2023-04-16T01:02:17.832Z,98535.66
2023-04-16T01:04:45.526Z,98534.00
2023-04-16T01:07:13.149Z,98533.63
2023-04-16T01:09:40.658Z,98536.50
2023-04-16T01:12:08.135Z,98539.19
2023-04-16T01:14:35.654Z,98546.22
2023-04-16T01:17:03.682Z,98549.38
2023-04-16T01:19:32.936Z,98553.09
2023-04-16T01:22:02.122Z,98553.47
2023-04-16T01:24:29.545Z,98561.06
2023-04-16T01:26:58.646Z,98555.53
2023-04-16T01:29:26.733Z,98567.94
2023-04-16T01:31:56.662Z,98569.44
2023-04-16T01:34:30.223Z,98572.94
2023-04-16T01:36:57.657Z,98576.94
2023-04-16T01:39:26.734Z,98580.09
2023-04-16T01:41:54.665Z,98587.63
2023-04-16T01:44:22.116Z,98582.03
2023-04-16T01:46:49.844Z,98587.53
2023-04-16T01:49:17.540Z,98592.25
2023-04-16T01:51:45.077Z,98590.09
2023-04-16T01:54:12.773Z,98591.06
2023-04-16T01:56:42.397Z,98588.16
2023-04-16T01:59:10.108Z,98594.72
2023-04-16T02:01:41.148Z,98586.63
2023-04-16T02:04:09.755Z,98593.50
2023-04-16T02:06:37.308Z,98599.09
2023-04-16T02:09:04.908Z,98591.44
2023-04-16T02:11:32.865Z,98590.41
2023-04-16T02:14:02.075Z,98598.47
2023-04-16T02:16:29.684Z,98599.72
2023-04-16T02:19:04.533Z,98590.06
2023-04-16T02:21:35.241Z,98595.94
2023-04-16T02:24:03.029Z,98606.72
2023-04-16T02:26:31.619Z,98599.50
2023-04-16T02:29:06.965Z,98600.75
2023-04-16T02:31:45.482Z,98606.78
2023-04-16T02:34:14.113Z,98598.91
2023-04-16T02:36:42.699Z,98605.97
2023-04-16T02:39:11.414Z,98608.63
2023-04-16T02:41:39.158Z,98609.53
2023-04-16T02:44:08.337Z,98615.47
2023-04-16T02:46:36.119Z,98616.22
2023-04-16T02:49:03.591Z,98609.94
2023-04-16T02:51:31.056Z,98612.06
2023-04-16T02:53:58.519Z,98612.91
2023-04-16T02:56:26.022Z,98614.50
2023-04-16T02:58:53.494Z,98614.69
2023-04-16T03:01:22.510Z,98616.19
2023-04-16T03:03:50.072Z,98626.97
2023-04-16T03:06:17.581Z,98627.22
2023-04-16T03:08:45.088Z,98625.28
2023-04-16T03:11:12.554Z,98621.03
2023-04-16T03:13:39.990Z,98633.63
2023-04-16T03:16:08.154Z,98627.66
2023-04-16T03:18:37.267Z,98632.91
2023-04-16T03:21:05.413Z,98634.56
2023-04-16T03:23:32.848Z,98629.97
2023-04-16T03:26:00.460Z,98631.88
2023-04-16T03:28:28.382Z,98627.50
2023-04-16T03:30:55.916Z,98628.50
2023-04-16T03:33:23.432Z,98628.50
2023-04-16T03:35:57.637Z,98628.31
2023-04-16T03:38:27.208Z,98636.22
2023-04-16T03:40:57.309Z,98631.19
2023-04-16T03:43:24.850Z,98633.72
2023-04-16T03:45:52.991Z,98630.84
2023-04-16T03:48:23.776Z,98631.66
2023-04-16T03:50:51.281Z,98636.22
2023-04-16T03:53:22.061Z,98632.31
2023-04-16T03:55:50.819Z,98625.03
2023-04-16T03:58:18.889Z,98634.16
2023-04-16T04:00:47.734Z,98627.94
2023-04-16T04:03:16.960Z,98628.78
2023-04-16T04:05:46.820Z,98633.13
2023-04-16T04:08:17.586Z,98640.41
2023-04-16T04:10:46.633Z,98637.50
2023-04-16T04:13:15.498Z,98638.53
2023-04-16T04:15:44.688Z,98640.41
2023-04-16T04:18:12.480Z,98639.56
2023-04-16T04:20:40.398Z,98651.00
2023-04-16T04:23:08.552Z,98645.59
2023-04-16T04:25:36.030Z,98643.09
2023-04-16T04:28:05.319Z,98646.63
2023-04-16T04:30:32.757Z,98640.41
2023-04-16T04:33:00.388Z,98652.88
2023-04-16T04:35:28.003Z,98643.28
2023-04-16T04:37:55.799Z,98642.44
2023-04-16T04:40:23.335Z,98645.81
2023-04-16T04:42:52.912Z,98644.13
2023-04-16T04:45:24.730Z,98644.97
2023-04-16T04:47:53.805Z,98638.94
2023-04-16T04:50:21.992Z,98641.44
2023-04-16T04:52:49.491Z,98634.16
2023-04-16T04:55:16.957Z,98636.03
2023-04-16T04:57:44.453Z,98636.88
2023-04-16T05:00:12.712Z,98642.25
2023-04-16T05:02:49.055Z,98632.50
2023-04-16T05:05:16.760Z,98643.94
2023-04-16T05:07:45.085Z,98645.81
2023-04-16T05:10:12.537Z,98638.94
2023-04-16T05:12:40.415Z,98644.69
2023-04-16T05:15:09.095Z,98642.00
2023-04-16T05:17:36.737Z,98643.00
2023-04-16T05:20:07.341Z,98646.53
2023-04-16T05:22:34.993Z,98643.84
2023-04-16T05:25:02.490Z,98649.09
2023-04-16T05:27:29.969Z,98644.88
2023-04-16T05:29:57.467Z,98649.63
2023-04-16T05:32:26.576Z,98642.81
2023-04-16T05:34:54.440Z,98642.66
2023-04-16T05:37:23.419Z,98643.00
2023-04-16T05:39:50.967Z,98643.00
2023-04-16T05:42:18.551Z,98631.38
2023-04-16T05:44:45.984Z,98638.44
2023-04-16T05:47:13.480Z,98636.16
2023-04-16T05:49:41.052Z,98646.94
2023-04-16T05:52:08.709Z,98640.47
2023-04-16T05:54:37.799Z,98645.47
2023-04-16T05:57:05.220Z,98642.75
2023-04-16T05:59:32.648Z,98643.59
2023-04-16T06:02:00.233Z,98644.16
2023-04-16T06:04:27.850Z,98644.81
2023-04-16T06:06:55.405Z,98647.25
2023-04-16T06:09:22.886Z,98636.47
2023-04-16T06:11:51.925Z,98634.41
2023-04-16T06:14:19.420Z,98636.06
2023-04-16T06:16:47.376Z,98654.13
2023-04-16T06:19:14.948Z,98642.50
2023-04-16T06:21:42.502Z,98648.56
2023-04-16T06:24:10.013Z,98643.97
2023-04-16T06:26:37.462Z,98641.47
2023-04-16T06:29:06.370Z,98634.22
2023-04-16T06:31:33.989Z,98638.19
2023-04-16T06:34:01.573Z,98638.19
2023-04-16T06:36:29.123Z,98638.00
2023-04-16T06:38:56.645Z,98638.19
2023-04-16T06:41:24.217Z,98638.59
2023-04-16T06:43:51.751Z,98638.00
2023-04-16T06:46:20.745Z,98639.66
2023-04-16T06:48:48.243Z,98638.00
2023-04-16T06:51:16.349Z,98640.88
2023-04-16T06:53:43.960Z,98632.38
2023-04-16T06:56:11.493Z,98638.41
2023-04-16T06:58:39.003Z,98632.78
2023-04-16T07:01:06.794Z,98636.50
2023-04-16T07:03:36.743Z,98634.66
2023-04-16T07:06:05.003Z,98624.50
2023-04-16T07:08:32.508Z,98620.41
2023-04-16T07:11:00.065Z,98616.50
2023-04-16T07:13:27.774Z,98621.06
2023-04-16T07:15:55.378Z,98623.09
2023-04-16T07:18:23.017Z,98626.63
2023-04-16T07:20:51.971Z,98619.41
2023-04-16T07:23:19.679Z,98619.41
2023-04-16T07:25:47.151Z,98604.88
2023-04-16T07:28:14.638Z,98605.53
2023-04-16T07:30:42.196Z,98615.47
2023-04-16T07:33:10.178Z,98617.53
2023-04-16T07:35:37.668Z,98602.81
2023-04-16T07:38:06.673Z,98609.44
2023-04-16T07:40:34.173Z,98601.34
2023-04-16T07:43:01.866Z,98604.59
2023-04-16T07:45:29.397Z,98599.00
2023-04-16T07:47:56.857Z,98601.91
2023-04-16T07:50:24.871Z,98585.16
2023-04-16T07:52:52.384Z,98580.19
2023-04-16T07:55:21.518Z,98574.84
2023-04-16T07:57:49.011Z,98575.44
2023-04-16T08:00:16.873Z,98575.84
2023-04-16T08:02:45.010Z,98579.56
2023-04-16T08:05:13.484Z,98575.53
2023-04-16T08:07:41.242Z,98566.00
2023-04-16T08:10:09.646Z,98560.69
2023-04-16T08:12:38.621Z,98554.44
2023-04-16T08:15:07.409Z,98554.25
2023-04-16T08:17:35.008Z,98562.06
2023-04-16T08:20:02.580Z,98562.66
2023-04-16T08:22:30.096Z,98557.22
2023-04-16T08:24:57.647Z,98543.13
2023-04-16T08:27:25.249Z,98548.78
2023-04-16T08:29:54.469Z,98552.97
2023-04-16T08:32:22.123Z,98551.97
2023-04-16T08:34:50.512Z,98552.31
2023-04-16T08:37:18.102Z,98543.38
2023-04-16T08:39:45.595Z,98544.22
2023-04-16T08:42:19.382Z,98541.31
2023-04-16T08:44:52.313Z,98540.13
2023-04-16T08:47:24.218Z,98539.28
2023-04-16T08:49:58.367Z,98531.19
2023-04-16T08:52:28.896Z,98535.78
2023-04-16T08:55:02.821Z,98537.44
2023-04-16T08:57:37.703Z,98532.03
2023-04-16T09:00:06.747Z,98534.88
2023-04-16T09:02:36.722Z,98530.38
2023-04-16T09:05:07.434Z,98534.06
2023-04-16T09:07:35.419Z,98535.56
2023-04-16T09:10:03.819Z,98531.63
2023-04-16T09:12:31.466Z,98523.97
2023-04-16T09:15:01.024Z,98533.31
2023-04-16T09:17:29.007Z,98530.22
2023-04-16T09:19:58.062Z,98528.19
2023-04-16T09:22:25.614Z,98522.75
2023-04-16T09:24:53.097Z,98521.09
2023-04-16T09:27:22.028Z,98515.25
2023-04-16T09:29:50.695Z,98525.19
2023-04-16T09:32:18.319Z,98512.78
2023-04-16T09:34:58.269Z,98513.19
2023-04-16T09:37:27.023Z,98508.22
2023-04-16T09:39:57.030Z,98515.09
2023-04-16T09:42:26.393Z,98510.94
2023-04-16T09:44:54.296Z,98514.50
2023-04-16T09:47:22.580Z,98507.38
2023-04-16T09:49:50.088Z,98505.53
2023-04-16T09:52:20.735Z,98505.13
2023-04-16T09:54:49.226Z,98494.78
2023-04-16T09:57:19.754Z,98488.16
2023-04-16T09:59:47.450Z,98487.53
2023-04-16T10:02:16.593Z,98481.72
2023-04-16T10:04:48.878Z,98485.81
2023-04-16T10:07:17.013Z,98473.19
2023-04-16T10:09:46.652Z,98484.16
2023-04-16T10:12:14.421Z,98483.53
2023-04-16T10:14:42.498Z,98482.31
2023-04-16T10:17:10.853Z,98473.97
2023-04-16T10:19:38.817Z,98465.69
2023-04-16T10:22:06.466Z,98469.84
2023-04-16T10:24:34.847Z,98464.66
2023-04-16T10:27:03.923Z,98467.34
2023-04-16T10:29:32.053Z,98469.22
2023-04-16T10:32:00.686Z,98462.56
2023-04-16T10:34:28.814Z,98472.78
2023-04-16T10:36:56.429Z,98450.38
2023-04-16T10:39:24.820Z,98450.81
2023-04-16T10:42:09.092Z,98456.44
2023-04-16T10:44:36.738Z,98454.78
2023-04-16T10:47:10.645Z,98446.47
2023-04-16T10:49:38.097Z,98443.78
2023-04-16T10:52:10.117Z,98438.41
2023-04-16T10:54:37.758Z,98446.28
2023-04-16T10:57:06.450Z,98445.84
2023-04-16T10:59:37.467Z,98440.03
2023-04-16T11:02:08.902Z,98428.00
2023-04-16T11:04:38.106Z,98423.03
2023-04-16T11:07:13.113Z,98431.97
2023-04-16T11:09:51.109Z,98435.94
2023-04-16T11:12:20.286Z,98433.25
2023-04-16T11:14:51.409Z,98422.00
2023-04-16T11:17:19.548Z,98424.91
2023-04-16T11:19:47.460Z,98417.66
2023-04-16T11:22:17.248Z,98423.03
2023-04-16T11:24:45.715Z,98426.53
2023-04-16T11:27:13.984Z,98423.81
2023-04-16T11:29:41.604Z,98419.25
2023-04-16T11:32:10.796Z,98425.06
2023-04-16T11:34:45.171Z,98418.88
2023-04-16T11:37:12.668Z,98417.63
2023-04-16T11:39:52.851Z,98421.16
2023-04-16T11:42:21.696Z,98412.84
2023-04-16T11:45:02.441Z,98410.78
2023-04-16T11:47:31.975Z,98409.31
2023-04-16T11:50:16.797Z,98405.63
2023-04-16T11:52:44.394Z,98413.47
2023-04-16T11:55:12.839Z,98408.94
2023-04-16T11:57:40.391Z,98408.94
2023-04-16T12:00:10.585Z,98411.38
2023-04-16T12:02:44.623Z,98399.34
2023-04-16T12:05:27.923Z,98395.44
2023-04-16T12:07:55.748Z,98405.63
2023-04-16T12:10:23.493Z,98399.78
2023-04-16T12:12:51.005Z,98395.22
2023-04-16T12:15:18.526Z,98388.38
2023-04-16T12:17:47.475Z,98384.41
2023-04-16T12:20:15.887Z,98390.84
2023-04-16T12:22:46.412Z,98390.84
2023-04-16T12:25:15.685Z,98388.81
2023-04-16T12:27:44.786Z,98391.47
2023-04-16T12:30:14.148Z,98388.81
2023-04-16T12:32:42.557Z,98389.00
2023-04-16T12:35:11.832Z,98377.41
2023-04-16T12:37:39.485Z,98379.44
2023-04-16T12:40:08.050Z,98378.19
2023-04-16T12:42:35.585Z,98374.03
2023-04-16T12:45:03.968Z,98381.94
2023-04-16T12:47:31.784Z,98377.34
2023-04-16T12:49:59.705Z,98371.94
2023-04-16T12:52:28.765Z,98372.38
2023-04-16T12:54:56.256Z,98366.13
2023-04-16T12:57:23.715Z,98364.88
2023-04-16T12:59:51.739Z,98363.22
2023-04-16T13:02:19.403Z,98355.31
2023-04-16T13:04:47.045Z,98359.25
2023-04-16T13:07:14.648Z,98359.66
2023-04-16T13:09:43.618Z,98359.47
2023-04-16T13:12:11.168Z,98357.59
2023-04-16T13:14:38.745Z,98355.31
2023-04-16T13:17:06.228Z,98363.22
2023-04-16T13:19:34.035Z,98361.16
2023-04-16T13:22:01.559Z,98351.38
2023-04-16T13:24:30.266Z,98356.19
2023-04-16T13:26:59.173Z,98358.69
2023-04-16T13:29:26.672Z,98353.47
2023-04-16T13:31:54.897Z,98352.00
2023-04-16T13:34:22.460Z,98344.34
2023-04-16T13:36:50.059Z,98345.38
2023-04-16T13:39:17.536Z,98345.19
2023-04-16T13:41:46.897Z,98343.72
2023-04-16T13:44:15.920Z,98348.69
2023-04-16T13:46:43.497Z,98349.75
2023-04-16T13:49:11.375Z,98352.47
2023-04-16T13:51:39.072Z,98351.22
2023-04-16T13:54:06.551Z,98349.13
2023-04-16T13:56:34.027Z,98346.00
2023-04-16T13:59:01.558Z,98348.50
2023-04-16T14:01:30.586Z,98348.50
2023-04-16T14:03:58.164Z,98343.53
2023-04-16T14:06:25.746Z,98344.38
2023-04-16T14:08:53.189Z,98347.88
2023-04-16T14:11:20.794Z,98347.47
2023-04-16T14:13:48.455Z,98344.38
2023-04-16T14:16:16.287Z,98339.16
2023-04-16T14:18:45.213Z,98349.13
2023-04-16T14:21:13.583Z,98343.75
2023-04-16T14:23:41.623Z,98337.31
2023-04-16T14:26:09.110Z,98347.47
2023-04-16T14:28:37.112Z,98348.53
2023-04-16T14:31:04.709Z,98349.16
2023-04-16T14:33:32.247Z,98345.81
2023-04-16T14:36:02.910Z,98345.84
2023-04-16T14:38:31.008Z,98346.22
2023-04-16T14:40:58.542Z,98351.84
2023-04-16T14:43:26.059Z,98351.22
2023-04-16T14:45:53.626Z,98354.53
2023-04-16T14:48:21.137Z,98356.84
2023-04-16T14:50:48.619Z,98353.91
2023-04-16T14:53:17.605Z,98365.13
2023-04-16T14:55:45.136Z,98360.69
2023-04-16T14:58:13.095Z,98359.72
2023-04-16T15:00:41.015Z,98366.97
2023-04-16T15:03:08.849Z,98370.34
2023-04-16T15:05:37.005Z,98367.41
2023-04-16T15:08:05.070Z,98372.38
2023-04-16T15:10:34.034Z,98376.97
2023-04-16T15:13:01.737Z,98383.63
2023-04-16T15:15:29.412Z,98380.28
2023-04-16T15:17:57.183Z,98383.41
2023-04-16T15:20:24.646Z,98378.03
2023-04-16T15:22:53.927Z,98387.59
2023-04-16T15:25:21.397Z,98391.31
2023-04-16T15:27:50.276Z,98401.09
2023-04-16T15:30:18.067Z,98398.38
2023-04-16T15:32:45.671Z,98401.72
2023-04-16T15:35:14.212Z,98402.75
2023-04-16T15:37:41.696Z,98402.75
2023-04-16T15:40:09.876Z,98404.41
2023-04-16T15:42:37.911Z,98404.41
2023-04-16T15:45:07.626Z,98405.66
2023-04-16T15:47:35.470Z,98411.88
2023-04-16T15:50:04.129Z,98413.97
2023-04-16T15:52:31.688Z,98417.06
2023-04-16T15:55:00.734Z,98418.09
2023-04-16T15:57:29.178Z,98417.28
2023-04-16T16:00:06.371Z,98418.94
2023-04-16T16:02:37.727Z,98415.22
2023-04-16T16:05:06.788Z,98422.47
2023-04-16T16:07:34.472Z,98423.72
2023-04-16T16:10:02.251Z,98414.78
2023-04-16T16:12:30.438Z,98421.03
2023-04-16T16:14:58.513Z,98423.94
2023-04-16T16:17:26.435Z,98429.34
2023-04-16T16:19:55.673Z,98420.41
2023-04-16T16:22:23.217Z,98426.44
2023-04-16T16:24:51.212Z,98423.75
2023-04-16T16:27:19.041Z,98430.38
2023-04-16T16:29:46.986Z,98426.03
2023-04-16T16:32:14.757Z,98431.66
2023-04-16T16:34:42.357Z,98423.53
2023-04-16T16:37:11.385Z,98423.94
2023-04-16T16:39:39.116Z,98425.41
2023-04-16T16:42:06.777Z,98428.53
2023-04-16T16:44:34.379Z,98430.59
2023-04-16T16:47:01.888Z,98428.94
2023-04-16T16:49:29.430Z,98430.19
2023-04-16T16:51:56.898Z,98431.84
2023-04-16T16:54:25.881Z,98431.00
2023-04-16T16:56:53.409Z,98431.00
2023-04-16T16:59:20.857Z,98428.28
2023-04-16T17:01:48.373Z,98436.22
2023-04-16T17:04:17.851Z,98428.28
2023-04-16T17:06:47.642Z,98431.84
2023-04-16T17:09:15.151Z,98427.91
2023-04-16T17:11:44.213Z,98436.41
2023-04-16T17:14:11.716Z,98439.75
2023-04-16T17:16:39.231Z,98428.09
2023-04-16T17:19:06.993Z,98436.22
2023-04-16T17:21:34.426Z,98431.22
2023-04-16T17:24:01.881Z,98433.94
2023-04-16T17:26:29.484Z,98436.00
2023-04-16T17:28:58.500Z,98430.59
2023-04-16T17:31:27.133Z,98439.34
2023-04-16T17:33:54.820Z,98434.97
2023-04-16T17:36:22.346Z,98432.03
2023-04-16T17:38:49.811Z,98435.63
2023-04-16T17:41:17.326Z,98436.22
2023-04-16T17:43:47.881Z,98441.41
2023-04-16T17:46:16.866Z,98445.97
2023-04-16T17:48:44.538Z,98445.97
2023-04-16T17:51:12.265Z,98445.97
2023-04-16T17:53:39.797Z,98446.16
2023-04-16T17:56:07.304Z,98441.81
2023-04-16T17:58:34.964Z,98445.34
2023-04-16T18:01:02.755Z,98449.72
2023-04-16T18:03:32.673Z,98446.16
2023-04-16T18:06:00.725Z,98445.16
2023-04-16T18:08:28.358Z,98449.72
2023-04-16T18:10:56.227Z,98455.13
2023-04-16T18:13:24.289Z,98449.09
2023-04-16T18:15:51.857Z,98444.50
2023-04-16T18:18:19.404Z,98444.31
2023-04-16T18:20:48.351Z,98456.97
2023-04-16T18:23:15.847Z,98454.91
2023-04-16T18:25:44.585Z,98450.13
2023-04-16T18:28:14.063Z,98456.59
2023-04-16T18:30:42.623Z,98448.88
2023-04-16T18:35:40.803Z,98455.13
2023-04-16T18:38:10.328Z,98456.97
2023-04-16T18:40:38.245Z,98452.22
2023-04-16T18:43:05.727Z,98454.28
2023-04-16T18:45:34.286Z,98446.38
2023-04-16T18:48:02.108Z,98447.84
2023-04-16T18:50:29.828Z,98451.78
2023-04-16T18:52:57.329Z,98458.00
2023-04-16T18:55:26.787Z,98449.91
2023-04-16T18:57:54.227Z,98451.56
2023-04-16T19:00:21.836Z,98456.56
2023-04-16T19:02:49.400Z,98452.59
2023-04-16T19:05:17.081Z,98452.59
2023-04-16T19:07:44.561Z,98446.59
2023-04-16T19:10:12.052Z,98450.94
2023-04-16T19:12:40.981Z,98452.59
2023-04-16T19:15:08.974Z,98451.16
2023-04-16T19:17:36.670Z,98457.56
2023-04-16T19:20:04.892Z,98453.03
2023-04-16T19:22:32.374Z,98450.31
2023-04-16T19:25:00.047Z,98443.88
2023-04-16T19:27:29.273Z,98457.56
2023-04-16T19:29:58.165Z,98451.38
2023-04-16T19:32:25.720Z,98460.09
2023-04-16T19:34:53.218Z,98457.81
2023-04-16T19:37:20.669Z,98451.56
2023-04-16T19:39:49.129Z,98464.25
2023-04-16T19:42:16.546Z,98458.84
2023-04-16T19:44:44.086Z,98464.88
2023-04-16T19:47:13.023Z,98458.00
2023-04-16T19:49:40.693Z,98458.63
2023-04-16T19:52:08.174Z,98463.22
2023-04-16T19:54:35.750Z,98464.88
2023-04-16T19:57:03.337Z,98460.50
2023-04-16T19:59:30.816Z,98464.25
2023-04-16T20:01:58.378Z,98459.47
2023-04-16T20:04:27.479Z,98462.59
2023-04-16T20:06:54.981Z,98464.25
2023-04-16T20:09:22.752Z,98462.78
2023-04-16T20:11:50.210Z,98455.09
2023-04-16T20:14:17.790Z,98460.88
2023-04-16T20:16:45.290Z,98460.88
2023-04-16T20:19:13.615Z,98459.22
2023-04-16T20:21:43.133Z,98453.81
2023-04-16T20:24:10.582Z,98456.75
2023-04-16T20:26:38.034Z,98465.47
2023-04-16T20:29:05.510Z,98467.56
2023-04-16T20:31:32.956Z,98467.75
2023-04-16T20:34:00.538Z,98466.50
2023-04-16T20:36:28.037Z,98466.28
2023-04-16T20:38:57.374Z,98466.69
2023-04-16T20:41:24.822Z,98469.59
2023-04-16T20:43:52.312Z,98475.41
2023-04-16T20:46:21.316Z,98474.38
2023-04-16T20:48:50.063Z,98470.00
2023-04-16T20:51:17.609Z,98474.78
2023-04-16T20:53:45.069Z,98473.75
2023-04-16T20:56:13.993Z,98475.81
2023-04-16T20:58:42.146Z,98473.94
2023-04-16T21:01:09.678Z,98486.19
2023-04-16T21:03:37.403Z,98486.19
2023-04-16T21:06:05.091Z,98483.50
2023-04-16T21:08:32.658Z,98485.34
2023-04-16T21:11:00.172Z,98482.66
2023-04-16T21:13:32.265Z,98480.81
2023-04-16T21:15:59.748Z,98492.22
2023-04-16T21:18:27.235Z,98484.97
2023-04-16T21:20:55.668Z,98489.09
2023-04-16T21:23:23.198Z,98485.78
2023-04-16T21:25:50.652Z,98491.00
2023-04-16T21:28:18.216Z,98492.84
2023-04-16T21:30:50.791Z,98495.53
2023-04-16T21:33:19.124Z,98489.09
2023-04-16T21:35:52.069Z,98494.31
2023-04-16T21:38:20.289Z,98503.88
2023-04-16T21:40:47.948Z,98498.69
2023-04-16T21:43:15.429Z,98503.28
2023-04-16T21:45:42.889Z,98497.03
2023-04-16T21:48:12.455Z,98504.09
2023-04-16T21:50:40.031Z,98500.56
2023-04-16T21:53:07.470Z,98501.19
2023-04-16T21:55:35.034Z,98500.56
2023-04-16T21:58:02.666Z,98508.44
2023-04-16T22:00:30.262Z,98508.66
2023-04-16T22:02:58.019Z,98516.34
2023-04-16T22:05:27.168Z,98514.69
2023-04-16T22:07:54.632Z,98518.44
2023-04-16T22:10:22.084Z,98518.44
2023-04-16T22:12:49.666Z,98530.28
2023-04-16T22:15:17.409Z,98525.69
2023-04-16T22:17:44.894Z,98525.50
2023-04-16T22:20:12.820Z,98534.63
2023-04-16T22:22:41.849Z,98533.59
2023-04-16T22:25:09.995Z,98531.94
2023-04-16T22:27:37.846Z,98536.28
2023-04-16T22:30:06.438Z,98534.63
2023-04-16T22:32:33.991Z,98530.91
2023-04-16T22:35:01.617Z,98532.75
2023-04-16T22:37:29.102Z,98529.00
2023-04-16T22:39:58.005Z,98538.16
2023-04-16T22:42:25.469Z,98537.34
2023-04-16T22:44:52.948Z,98538.16
2023-04-16T22:47:20.434Z,98541.88
2023-04-16T22:49:47.917Z,98549.16
2023-04-16T22:52:15.504Z,98539.41
2023-04-16T22:54:42.952Z,98541.69
2023-04-16T22:57:11.878Z,98546.06
2023-04-16T22:59:39.406Z,98544.41
2023-04-16T23:02:06.917Z,98547.91
2023-04-16T23:04:34.924Z,98556.25
2023-04-16T23:07:02.469Z,98562.25
2023-04-16T23:09:29.926Z,98559.75
2023-04-16T23:11:57.380Z,98565.16
2023-04-16T23:14:26.304Z,98570.38
2023-04-16T23:16:53.759Z,98569.75
2023-04-16T23:19:21.197Z,98575.97
2023-04-16T23:21:48.739Z,98576.19
2023-04-16T23:24:16.190Z,98578.88
2023-04-16T23:26:43.727Z,98575.13
2023-04-16T23:29:11.448Z,98582.41
2023-04-16T23:31:40.625Z,98581.56
2023-04-16T23:34:08.595Z,98585.31
2023-04-16T23:36:36.040Z,98584.28
2023-04-16T23:39:03.851Z,98586.31
2023-04-16T23:41:31.653Z,98592.38
2023-04-16T23:43:59.122Z,98590.91
2023-04-16T23:46:26.641Z,98593.41
2023-04-16T23:48:55.559Z,98591.72
2023-04-16T23:51:23.000Z,98589.03
2023-04-16T23:53:50.782Z,98595.47
2023-04-16T23:56:18.408Z,98590.28
2023-04-16T23:58:45.901Z,98592.13
